sensor_id;sensor_type;location;lat;lon;timestamp;pressure;altitude;pressure_sealevel;temperature;humidity
70250;BME280;57644;48.416;-123.374;2022-09-24T00:02:25;102065.71;;;10.97;66.46
70250;BME280;57644;48.416;-123.374;2022-09-24T00:04:56;102068.88;;;10.96;66.36
70250;BME280;57644;48.416;-123.374;2022-09-24T00:07:26;102069.71;;;10.98;66.42
70250;BME280;57644;48.416;-123.374;2022-09-24T00:09:56;102067.65;;;10.97;66.55
70250;BME280;57644;48.416;-123.374;2022-09-24T00:12:26;102068.79;;;10.90;66.63
70250;BME280;57644;48.416;-123.374;2022-09-24T00:14:56;102074.59;;;10.91;66.69
70250;BME280;57644;48.416;-123.374;2022-09-24T00:17:27;102074.39;;;10.90;66.67
70250;BME280;57644;48.416;-123.374;2022-09-24T00:19:57;102076.46;;;10.87;66.89
70250;BME280;57644;48.416;-123.374;2022-09-24T00:22:27;102072.67;;;10.82;67.19
70250;BME280;57644;48.416;-123.374;2022-09-24T00:24:58;102073.40;;;10.75;66.90
70250;BME280;57644;48.416;-123.374;2022-09-24T00:27:27;102071.63;;;10.66;67.10
70250;BME280;57644;48.416;-123.374;2022-09-24T00:29:58;102068.25;;;10.64;67.15
70250;BME280;57644;48.416;-123.374;2022-09-24T00:32:28;102064.15;;;10.64;67.25
70250;BME280;57644;48.416;-123.374;2022-09-24T00:34:58;102063.32;;;10.63;67.13
70250;BME280;57644;48.416;-123.374;2022-09-24T00:37:29;102055.20;;;10.58;67.36
70250;BME280;57644;48.416;-123.374;2022-09-24T00:39:59;102049.60;;;10.56;67.58
70250;BME280;57644;48.416;-123.374;2022-09-24T00:42:30;102047.70;;;10.57;67.57
70250;BME280;57644;48.416;-123.374;2022-09-24T00:45:00;102047.98;;;10.50;67.77
70250;BME280;57644;48.416;-123.374;2022-09-24T00:47:34;102046.36;;;10.48;67.89
70250;BME280;57644;48.416;-123.374;2022-09-24T00:50:07;102047.68;;;10.50;67.77
70250;BME280;57644;48.416;-123.374;2022-09-24T00:52:31;102050.28;;;10.50;67.76
70250;BME280;57644;48.416;-123.374;2022-09-24T00:55:01;102060.45;;;10.41;67.98
70250;BME280;57644;48.416;-123.374;2022-09-24T00:57:32;102069.49;;;10.42;67.82
70250;BME280;57644;48.416;-123.374;2022-09-24T01:00:04;102073.44;;;10.40;67.97
70250;BME280;57644;48.416;-123.374;2022-09-24T01:02:33;102077.23;;;10.37;68.15
70250;BME280;57644;48.416;-123.374;2022-09-24T01:05:03;102081.90;;;10.37;68.06
70250;BME280;57644;48.416;-123.374;2022-09-24T01:07:33;102088.46;;;10.37;67.74
70250;BME280;57644;48.416;-123.374;2022-09-24T01:10:05;102090.88;;;10.26;67.99
70250;BME280;57644;48.416;-123.374;2022-09-24T01:12:41;102092.78;;;10.23;67.90
70250;BME280;57644;48.416;-123.374;2022-09-24T01:15:11;102093.00;;;10.21;67.93
70250;BME280;57644;48.416;-123.374;2022-09-24T01:17:39;102093.32;;;10.20;68.02
70250;BME280;57644;48.416;-123.374;2022-09-24T01:20:21;102090.24;;;10.15;68.14
70250;BME280;57644;48.416;-123.374;2022-09-24T01:22:44;102091.50;;;10.15;68.06
70250;BME280;57644;48.416;-123.374;2022-09-24T01:25:14;102094.47;;;10.13;68.07
70250;BME280;57644;48.416;-123.374;2022-09-24T01:27:50;102092.41;;;10.12;68.03
70250;BME280;57644;48.416;-123.374;2022-09-24T01:30:09;102091.82;;;10.13;67.98
70250;BME280;57644;48.416;-123.374;2022-09-24T01:32:40;102087.98;;;10.13;67.87
70250;BME280;57644;48.416;-123.374;2022-09-24T01:35:13;102085.32;;;10.10;67.80
70250;BME280;57644;48.416;-123.374;2022-09-24T01:37:40;102083.66;;;10.08;67.73
70250;BME280;57644;48.416;-123.374;2022-09-24T01:40:10;102083.77;;;10.07;67.76
70250;BME280;57644;48.416;-123.374;2022-09-24T01:42:40;102084.78;;;10.04;67.81
70250;BME280;57644;48.416;-123.374;2022-09-24T01:45:10;102087.53;;;10.05;67.68
70250;BME280;57644;48.416;-123.374;2022-09-24T01:47:40;102090.21;;;10.05;67.61
70250;BME280;57644;48.416;-123.374;2022-09-24T01:50:13;102088.93;;;10.04;67.71
70250;BME280;57644;48.416;-123.374;2022-09-24T01:52:43;102086.85;;;10.03;67.82
70250;BME280;57644;48.416;-123.374;2022-09-24T01:55:13;102089.09;;;10.02;67.79
70250;BME280;57644;48.416;-123.374;2022-09-24T01:57:43;102086.72;;;10.03;67.65
70250;BME280;57644;48.416;-123.374;2022-09-24T02:00:12;102083.97;;;9.97;67.72
70250;BME280;57644;48.416;-123.374;2022-09-24T02:02:44;102094.42;;;9.90;67.64
70250;BME280;57644;48.416;-123.374;2022-09-24T02:05:18;102096.59;;;9.79;67.91
70250;BME280;57644;48.416;-123.374;2022-09-24T02:07:46;102096.29;;;9.66;68.48
70250;BME280;57644;48.416;-123.374;2022-09-24T02:10:16;102096.06;;;9.62;68.58
70250;BME280;57644;48.416;-123.374;2022-09-24T02:12:45;102090.44;;;9.55;68.85
70250;BME280;57644;48.416;-123.374;2022-09-24T02:15:15;102086.71;;;9.52;69.08
70250;BME280;57644;48.416;-123.374;2022-09-24T02:17:45;102083.62;;;9.47;69.50
70250;BME280;57644;48.416;-123.374;2022-09-24T02:20:15;102088.01;;;9.45;69.67
70250;BME280;57644;48.416;-123.374;2022-09-24T02:22:43;102091.35;;;9.46;69.89
70250;BME280;57644;48.416;-123.374;2022-09-24T02:25:16;102095.08;;;9.46;70.00
70250;BME280;57644;48.416;-123.374;2022-09-24T02:27:44;102089.75;;;9.47;69.99
70250;BME280;57644;48.416;-123.374;2022-09-24T02:30:14;102092.25;;;9.49;70.16
70250;BME280;57644;48.416;-123.374;2022-09-24T02:32:44;102095.19;;;9.50;70.11
70250;BME280;57644;48.416;-123.374;2022-09-24T02:35:15;102092.75;;;9.48;70.61
70250;BME280;57644;48.416;-123.374;2022-09-24T02:37:45;102091.60;;;9.48;70.36
70250;BME280;57644;48.416;-123.374;2022-09-24T02:40:15;102090.45;;;9.45;70.38
70250;BME280;57644;48.416;-123.374;2022-09-24T02:42:46;102086.42;;;9.45;70.24
70250;BME280;57644;48.416;-123.374;2022-09-24T02:45:16;102089.32;;;9.42;70.39
70250;BME280;57644;48.416;-123.374;2022-09-24T02:47:46;102092.04;;;9.39;70.28
70250;BME280;57644;48.416;-123.374;2022-09-24T02:50:16;102091.76;;;9.39;70.16
70250;BME280;57644;48.416;-123.374;2022-09-24T02:52:46;102090.54;;;9.37;69.97
70250;BME280;57644;48.416;-123.374;2022-09-24T02:55:17;102092.94;;;9.34;69.96
70250;BME280;57644;48.416;-123.374;2022-09-24T02:57:47;102093.62;;;9.34;69.87
70250;BME280;57644;48.416;-123.374;2022-09-24T03:00:17;102093.03;;;9.32;69.77
70250;BME280;57644;48.416;-123.374;2022-09-24T03:02:48;102097.03;;;9.34;69.69
70250;BME280;57644;48.416;-123.374;2022-09-24T03:05:19;102094.48;;;9.28;69.87
70250;BME280;57644;48.416;-123.374;2022-09-24T03:07:47;102093.30;;;9.25;70.06
70250;BME280;57644;48.416;-123.374;2022-09-24T03:10:18;102094.68;;;9.24;70.09
70250;BME280;57644;48.416;-123.374;2022-09-24T03:12:48;102097.17;;;9.24;70.27
70250;BME280;57644;48.416;-123.374;2022-09-24T03:15:19;102095.81;;;9.26;70.17
70250;BME280;57644;48.416;-123.374;2022-09-24T03:17:49;102097.02;;;9.24;70.29
70250;BME280;57644;48.416;-123.374;2022-09-24T03:20:19;102099.72;;;9.22;70.43
70250;BME280;57644;48.416;-123.374;2022-09-24T03:22:50;102099.16;;;9.21;70.36
70250;BME280;57644;48.416;-123.374;2022-09-24T03:25:20;102096.14;;;9.23;70.18
70250;BME280;57644;48.416;-123.374;2022-09-24T03:27:50;102093.08;;;9.23;70.16
70250;BME280;57644;48.416;-123.374;2022-09-24T03:30:21;102095.38;;;9.24;70.17
70250;BME280;57644;48.416;-123.374;2022-09-24T03:32:51;102097.76;;;9.26;70.04
70250;BME280;57644;48.416;-123.374;2022-09-24T03:35:21;102098.18;;;9.22;69.99
70250;BME280;57644;48.416;-123.374;2022-09-24T03:37:52;102102.28;;;9.15;70.01
70250;BME280;57644;48.416;-123.374;2022-09-24T03:40:22;102101.43;;;9.13;69.97
70250;BME280;57644;48.416;-123.374;2022-09-24T03:42:53;102101.25;;;9.13;70.06
70250;BME280;57644;48.416;-123.374;2022-09-24T03:45:23;102109.60;;;9.15;70.08
70250;BME280;57644;48.416;-123.374;2022-09-24T03:47:53;102118.80;;;9.16;70.09
70250;BME280;57644;48.416;-123.374;2022-09-24T03:50:23;102118.81;;;9.14;70.36
70250;BME280;57644;48.416;-123.374;2022-09-24T03:52:53;102122.58;;;9.17;70.10
70250;BME280;57644;48.416;-123.374;2022-09-24T03:55:23;102124.78;;;9.19;70.04
70250;BME280;57644;48.416;-123.374;2022-09-24T03:57:53;102126.03;;;9.21;69.88
70250;BME280;57644;48.416;-123.374;2022-09-24T04:00:24;102123.62;;;9.23;69.83
70250;BME280;57644;48.416;-123.374;2022-09-24T04:02:54;102123.28;;;9.23;69.87
70250;BME280;57644;48.416;-123.374;2022-09-24T04:05:24;102122.81;;;9.25;69.85
70250;BME280;57644;48.416;-123.374;2022-09-24T04:07:55;102125.32;;;9.26;69.81
70250;BME280;57644;48.416;-123.374;2022-09-24T04:10:26;102130.14;;;9.24;70.00
70250;BME280;57644;48.416;-123.374;2022-09-24T04:12:55;102126.56;;;9.24;70.05
70250;BME280;57644;48.416;-123.374;2022-09-24T04:15:26;102122.84;;;9.25;70.18
70250;BME280;57644;48.416;-123.374;2022-09-24T04:17:57;102119.64;;;9.26;70.09
70250;BME280;57644;48.416;-123.374;2022-09-24T04:20:28;102125.50;;;9.27;70.03
70250;BME280;57644;48.416;-123.374;2022-09-24T04:22:58;102126.79;;;9.29;69.94
70250;BME280;57644;48.416;-123.374;2022-09-24T04:25:30;102122.74;;;9.31;70.00
70250;BME280;57644;48.416;-123.374;2022-09-24T04:28:00;102124.95;;;9.34;70.27
70250;BME280;57644;48.416;-123.374;2022-09-24T04:30:30;102129.01;;;9.37;70.50
70250;BME280;57644;48.416;-123.374;2022-09-24T04:33:00;102133.73;;;9.37;70.62
70250;BME280;57644;48.416;-123.374;2022-09-24T04:35:32;102136.34;;;9.40;71.03
70250;BME280;57644;48.416;-123.374;2022-09-24T04:38:01;102138.82;;;9.43;71.00
70250;BME280;57644;48.416;-123.374;2022-09-24T04:40:31;102142.47;;;9.41;71.25
70250;BME280;57644;48.416;-123.374;2022-09-24T04:43:01;102150.02;;;9.43;71.27
70250;BME280;57644;48.416;-123.374;2022-09-24T04:45:32;102157.85;;;9.45;71.53
70250;BME280;57644;48.416;-123.374;2022-09-24T04:48:01;102165.59;;;9.44;71.83
70250;BME280;57644;48.416;-123.374;2022-09-24T04:50:32;102168.98;;;9.43;72.21
70250;BME280;57644;48.416;-123.374;2022-09-24T04:53:02;102171.13;;;9.43;72.78
70250;BME280;57644;48.416;-123.374;2022-09-24T04:55:32;102170.15;;;9.44;73.04
70250;BME280;57644;48.416;-123.374;2022-09-24T04:58:03;102172.16;;;9.46;73.34
70250;BME280;57644;48.416;-123.374;2022-09-24T05:00:33;102174.18;;;9.47;73.78
70250;BME280;57644;48.416;-123.374;2022-09-24T05:03:04;102173.01;;;9.43;74.59
70250;BME280;57644;48.416;-123.374;2022-09-24T05:05:34;102171.73;;;9.39;75.96
70250;BME280;57644;48.416;-123.374;2022-09-24T05:08:03;102177.14;;;9.41;75.94
70250;BME280;57644;48.416;-123.374;2022-09-24T05:10:34;102180.33;;;9.42;76.75
70250;BME280;57644;48.416;-123.374;2022-09-24T05:13:04;102183.05;;;9.42;77.74
70250;BME280;57644;48.416;-123.374;2022-09-24T05:15:35;102184.81;;;9.41;77.75
70250;BME280;57644;48.416;-123.374;2022-09-24T05:18:05;102185.93;;;9.40;78.30
70250;BME280;57644;48.416;-123.374;2022-09-24T05:20:35;102187.50;;;9.39;79.00
70250;BME280;57644;48.416;-123.374;2022-09-24T05:23:05;102190.82;;;9.39;79.15
70250;BME280;57644;48.416;-123.374;2022-09-24T05:25:36;102188.55;;;9.38;79.47
70250;BME280;57644;48.416;-123.374;2022-09-24T05:28:06;102188.86;;;9.37;79.79
70250;BME280;57644;48.416;-123.374;2022-09-24T05:30:36;102190.00;;;9.34;80.31
70250;BME280;57644;48.416;-123.374;2022-09-24T05:33:07;102189.14;;;9.33;80.42
70250;BME280;57644;48.416;-123.374;2022-09-24T05:35:37;102180.65;;;9.32;81.12
70250;BME280;57644;48.416;-123.374;2022-09-24T05:38:08;102176.94;;;9.27;81.18
70250;BME280;57644;48.416;-123.374;2022-09-24T05:40:38;102178.85;;;9.27;80.90
70250;BME280;57644;48.416;-123.374;2022-09-24T05:43:08;102180.52;;;9.27;80.88
70250;BME280;57644;48.416;-123.374;2022-09-24T05:45:39;102179.89;;;9.27;80.67
70250;BME280;57644;48.416;-123.374;2022-09-24T05:48:09;102172.36;;;9.27;80.80
70250;BME280;57644;48.416;-123.374;2022-09-24T05:50:40;102169.02;;;9.24;80.89
70250;BME280;57644;48.416;-123.374;2022-09-24T05:53:10;102167.44;;;9.18;81.15
70250;BME280;57644;48.416;-123.374;2022-09-24T05:55:42;102167.79;;;9.16;81.21
70250;BME280;57644;48.416;-123.374;2022-09-24T05:58:11;102174.08;;;9.12;81.27
70250;BME280;57644;48.416;-123.374;2022-09-24T06:00:41;102178.65;;;9.15;80.57
70250;BME280;57644;48.416;-123.374;2022-09-24T06:03:13;102178.14;;;9.17;80.14
70250;BME280;57644;48.416;-123.374;2022-09-24T06:05:45;102178.79;;;9.14;80.24
70250;BME280;57644;48.416;-123.374;2022-09-24T06:08:12;102178.73;;;9.15;80.16
70250;BME280;57644;48.416;-123.374;2022-09-24T06:10:43;102180.41;;;9.15;80.08
70250;BME280;57644;48.416;-123.374;2022-09-24T06:13:15;102185.71;;;9.15;80.09
70250;BME280;57644;48.416;-123.374;2022-09-24T06:15:43;102177.59;;;9.12;80.26
70250;BME280;57644;48.416;-123.374;2022-09-24T06:18:13;102171.82;;;9.11;80.16
70250;BME280;57644;48.416;-123.374;2022-09-24T06:20:44;102171.56;;;9.10;80.41
70250;BME280;57644;48.416;-123.374;2022-09-24T06:23:14;102167.13;;;9.08;80.23
70250;BME280;57644;48.416;-123.374;2022-09-24T06:25:49;102159.33;;;9.10;80.03
70250;BME280;57644;48.416;-123.374;2022-09-24T06:28:14;102159.06;;;9.08;79.85
70250;BME280;57644;48.416;-123.374;2022-09-24T06:30:45;102156.41;;;9.10;79.58
70250;BME280;57644;48.416;-123.374;2022-09-24T06:33:15;102158.53;;;9.07;79.63
70250;BME280;57644;48.416;-123.374;2022-09-24T06:35:46;102161.00;;;9.06;79.66
70250;BME280;57644;48.416;-123.374;2022-09-24T06:38:17;102162.23;;;9.06;79.38
70250;BME280;57644;48.416;-123.374;2022-09-24T06:40:47;102162.70;;;9.03;79.51
70250;BME280;57644;48.416;-123.374;2022-09-24T06:43:17;102162.69;;;9.01;79.35
70250;BME280;57644;48.416;-123.374;2022-09-24T06:45:47;102161.58;;;8.97;79.72
70250;BME280;57644;48.416;-123.374;2022-09-24T06:48:17;102163.61;;;8.96;79.56
70250;BME280;57644;48.416;-123.374;2022-09-24T06:50:48;102162.48;;;8.93;79.72
70250;BME280;57644;48.416;-123.374;2022-09-24T06:53:18;102158.00;;;8.88;79.75
70250;BME280;57644;48.416;-123.374;2022-09-24T06:55:48;102154.41;;;8.88;79.74
70250;BME280;57644;48.416;-123.374;2022-09-24T06:58:19;102150.50;;;8.89;79.79
70250;BME280;57644;48.416;-123.374;2022-09-24T07:00:52;102151.89;;;8.90;79.59
70250;BME280;57644;48.416;-123.374;2022-09-24T07:03:20;102149.57;;;8.90;79.54
70250;BME280;57644;48.416;-123.374;2022-09-24T07:05:50;102150.54;;;8.89;79.30
70250;BME280;57644;48.416;-123.374;2022-09-24T07:08:20;102150.49;;;8.89;79.09
70250;BME280;57644;48.416;-123.374;2022-09-24T07:10:51;102152.00;;;8.85;79.01
70250;BME280;57644;48.416;-123.374;2022-09-24T07:13:21;102151.92;;;8.82;78.96
70250;BME280;57644;48.416;-123.374;2022-09-24T07:15:51;102160.45;;;8.78;78.84
70250;BME280;57644;48.416;-123.374;2022-09-24T07:18:22;102166.35;;;8.73;78.87
70250;BME280;57644;48.416;-123.374;2022-09-24T07:20:52;102166.95;;;8.69;78.97
70250;BME280;57644;48.416;-123.374;2022-09-24T07:23:23;102167.76;;;8.61;79.14
70250;BME280;57644;48.416;-123.374;2022-09-24T07:25:55;102169.06;;;8.60;79.20
70250;BME280;57644;48.416;-123.374;2022-09-24T07:28:23;102168.04;;;8.56;79.51
70250;BME280;57644;48.416;-123.374;2022-09-24T07:30:58;102168.82;;;8.55;79.47
70250;BME280;57644;48.416;-123.374;2022-09-24T07:33:24;102170.87;;;8.50;79.80
70250;BME280;57644;48.416;-123.374;2022-09-24T07:35:54;102170.37;;;8.45;79.97
70250;BME280;57644;48.416;-123.374;2022-09-24T07:38:25;102170.69;;;8.43;80.09
70250;BME280;57644;48.416;-123.374;2022-09-24T07:40:57;102173.66;;;8.42;80.12
70250;BME280;57644;48.416;-123.374;2022-09-24T07:43:25;102176.87;;;8.37;80.23
70250;BME280;57644;48.416;-123.374;2022-09-24T07:45:55;102177.88;;;8.30;80.76
70250;BME280;57644;48.416;-123.374;2022-09-24T07:48:26;102181.91;;;8.23;80.87
70250;BME280;57644;48.416;-123.374;2022-09-24T07:50:57;102183.81;;;8.21;81.01
70250;BME280;57644;48.416;-123.374;2022-09-24T07:53:27;102182.59;;;8.17;81.13
70250;BME280;57644;48.416;-123.374;2022-09-24T07:55:59;102177.60;;;8.13;81.36
70250;BME280;57644;48.416;-123.374;2022-09-24T07:58:27;102178.22;;;8.11;81.34
70250;BME280;57644;48.416;-123.374;2022-09-24T08:00:58;102175.93;;;8.10;81.41
70250;BME280;57644;48.416;-123.374;2022-09-24T08:03:28;102177.43;;;8.10;81.27
70250;BME280;57644;48.416;-123.374;2022-09-24T08:05:59;102179.29;;;8.12;81.14
70250;BME280;57644;48.416;-123.374;2022-09-24T08:08:29;102178.16;;;8.09;81.31
70250;BME280;57644;48.416;-123.374;2022-09-24T08:11:03;102181.78;;;8.02;81.66
70250;BME280;57644;48.416;-123.374;2022-09-24T08:13:30;102181.35;;;7.95;81.99
70250;BME280;57644;48.416;-123.374;2022-09-24T08:16:01;102180.18;;;7.88;82.17
70250;BME280;57644;48.416;-123.374;2022-09-24T08:18:31;102181.69;;;7.85;82.45
70250;BME280;57644;48.416;-123.374;2022-09-24T08:21:04;102182.07;;;7.80;82.89
70250;BME280;57644;48.416;-123.374;2022-09-24T08:23:32;102182.38;;;7.78;82.65
70250;BME280;57644;48.416;-123.374;2022-09-24T08:26:02;102183.81;;;7.77;82.74
70250;BME280;57644;48.416;-123.374;2022-09-24T08:28:32;102183.66;;;7.73;82.71
70250;BME280;57644;48.416;-123.374;2022-09-24T08:31:04;102187.69;;;7.75;82.65
70250;BME280;57644;48.416;-123.374;2022-09-24T08:33:33;102189.85;;;7.75;82.73
70250;BME280;57644;48.416;-123.374;2022-09-24T08:36:04;102188.29;;;7.73;82.82
70250;BME280;57644;48.416;-123.374;2022-09-24T08:38:33;102189.58;;;7.74;82.69
70250;BME280;57644;48.416;-123.374;2022-09-24T08:43:43;102193.55;;;7.76;82.35
70250;BME280;57644;48.416;-123.374;2022-09-24T08:46:11;102196.63;;;7.75;82.33
70250;BME280;57644;48.416;-123.374;2022-09-24T08:48:39;102201.27;;;7.72;82.42
70250;BME280;57644;48.416;-123.374;2022-09-24T08:51:11;102208.97;;;7.67;82.35
70250;BME280;57644;48.416;-123.374;2022-09-24T08:53:44;102214.23;;;7.57;82.87
70250;BME280;57644;48.416;-123.374;2022-09-24T08:56:07;102218.04;;;7.44;83.61
70250;BME280;57644;48.416;-123.374;2022-09-24T08:58:43;102222.76;;;7.36;83.66
70250;BME280;57644;48.416;-123.374;2022-09-24T09:01:15;102223.34;;;7.31;83.92
70250;BME280;57644;48.416;-123.374;2022-09-24T09:03:43;102224.73;;;7.32;83.89
70250;BME280;57644;48.416;-123.374;2022-09-24T09:06:15;102222.34;;;7.32;83.92
70250;BME280;57644;48.416;-123.374;2022-09-24T09:08:44;102224.77;;;7.33;83.77
70250;BME280;57644;48.416;-123.374;2022-09-24T09:11:13;102226.87;;;7.33;83.83
70250;BME280;57644;48.416;-123.374;2022-09-24T09:13:41;102231.81;;;7.30;83.89
70250;BME280;57644;48.416;-123.374;2022-09-24T09:16:17;102226.58;;;7.27;83.90
70250;BME280;57644;48.416;-123.374;2022-09-24T09:18:42;102226.72;;;7.21;84.02
70250;BME280;57644;48.416;-123.374;2022-09-24T09:21:23;102226.36;;;7.21;84.05
70250;BME280;57644;48.416;-123.374;2022-09-24T09:23:47;102227.73;;;7.21;83.84
70250;BME280;57644;48.416;-123.374;2022-09-24T09:26:11;102228.67;;;7.21;83.69
70250;BME280;57644;48.416;-123.374;2022-09-24T09:28:50;102228.96;;;7.20;83.54
70250;BME280;57644;48.416;-123.374;2022-09-24T09:31:17;102233.07;;;7.19;83.52
70250;BME280;57644;48.416;-123.374;2022-09-24T09:33:52;102234.65;;;7.13;83.75
70250;BME280;57644;48.416;-123.374;2022-09-24T09:38:49;102246.83;;;7.14;83.12
70250;BME280;57644;48.416;-123.374;2022-09-24T09:41:18;102252.49;;;7.13;82.99
70250;BME280;57644;48.416;-123.374;2022-09-24T09:43:43;102253.64;;;7.09;82.91
70250;BME280;57644;48.416;-123.374;2022-09-24T09:46:17;102254.79;;;7.03;82.78
70250;BME280;57644;48.416;-123.374;2022-09-24T09:48:46;102260.25;;;6.96;83.01
70250;BME280;57644;48.416;-123.374;2022-09-24T09:51:17;102263.65;;;6.90;83.25
70250;BME280;57644;48.416;-123.374;2022-09-24T09:53:53;102266.99;;;6.84;83.41
70250;BME280;57644;48.416;-123.374;2022-09-24T09:56:15;102269.33;;;6.82;83.55
70250;BME280;57644;48.416;-123.374;2022-09-24T09:58:45;102270.57;;;6.82;83.23
70250;BME280;57644;48.416;-123.374;2022-09-24T10:01:17;102268.17;;;6.80;83.22
70250;BME280;57644;48.416;-123.374;2022-09-24T10:03:48;102265.25;;;6.80;83.26
70250;BME280;57644;48.416;-123.374;2022-09-24T10:06:23;102265.40;;;6.77;83.31
70250;BME280;57644;48.416;-123.374;2022-09-24T10:08:47;102264.93;;;6.74;83.58
70250;BME280;57644;48.416;-123.374;2022-09-24T10:11:18;102262.65;;;6.71;83.66
70250;BME280;57644;48.416;-123.374;2022-09-24T10:16:18;102259.55;;;6.69;83.73
70250;BME280;57644;48.416;-123.374;2022-09-24T10:18:49;102263.89;;;6.70;83.71
70250;BME280;57644;48.416;-123.374;2022-09-24T10:21:25;102268.84;;;6.58;84.25
70250;BME280;57644;48.416;-123.374;2022-09-24T10:23:49;102266.98;;;6.56;84.13
70250;BME280;57644;48.416;-123.374;2022-09-24T10:26:19;102267.60;;;6.51;84.30
70250;BME280;57644;48.416;-123.374;2022-09-24T10:28:51;102272.06;;;6.46;84.17
70250;BME280;57644;48.416;-123.374;2022-09-24T10:31:22;102278.70;;;6.42;84.68
70250;BME280;57644;48.416;-123.374;2022-09-24T10:33:52;102279.15;;;6.43;84.72
70250;BME280;57644;48.416;-123.374;2022-09-24T10:36:22;102282.69;;;6.44;84.79
70250;BME280;57644;48.416;-123.374;2022-09-24T10:41:26;102274.89;;;6.50;84.79
70250;BME280;57644;48.416;-123.374;2022-09-24T10:43:52;102276.37;;;6.53;85.21
70250;BME280;57644;48.416;-123.374;2022-09-24T10:48:59;102275.84;;;6.61;85.11
70250;BME280;57644;48.416;-123.374;2022-09-24T10:51:33;102275.42;;;6.68;84.83
70250;BME280;57644;48.416;-123.374;2022-09-24T10:54:03;102276.41;;;6.73;84.82
70250;BME280;57644;48.416;-123.374;2022-09-24T10:56:29;102276.74;;;6.79;84.41
70250;BME280;57644;48.416;-123.374;2022-09-24T10:59:13;102277.84;;;6.85;84.19
70250;BME280;57644;48.416;-123.374;2022-09-24T11:01:31;102280.40;;;6.82;84.70
70250;BME280;57644;48.416;-123.374;2022-09-24T11:06:37;102279.32;;;6.82;84.54
70250;BME280;57644;48.416;-123.374;2022-09-24T11:09:06;102279.36;;;6.85;84.39
70250;BME280;57644;48.416;-123.374;2022-09-24T11:11:35;102277.27;;;6.86;84.32
70250;BME280;57644;48.416;-123.374;2022-09-24T11:14:10;102274.72;;;6.90;84.19
70250;BME280;57644;48.416;-123.374;2022-09-24T11:19:01;102268.22;;;6.86;84.56
70250;BME280;57644;48.416;-123.374;2022-09-24T11:21:39;102265.96;;;6.86;84.66
70250;BME280;57644;48.416;-123.374;2022-09-24T11:26:38;102261.63;;;6.93;84.77
70250;BME280;57644;48.416;-123.374;2022-09-24T11:29:06;102259.59;;;6.92;84.93
70250;BME280;57644;48.416;-123.374;2022-09-24T11:31:34;102260.23;;;6.97;84.85
70250;BME280;57644;48.416;-123.374;2022-09-24T11:34:12;102263.40;;;7.00;84.85
70250;BME280;57644;48.416;-123.374;2022-09-24T11:36:43;102263.50;;;7.01;84.79
70250;BME280;57644;48.416;-123.374;2022-09-24T11:39:16;102263.64;;;7.03;84.91
70250;BME280;57644;48.416;-123.374;2022-09-24T11:41:41;102259.86;;;7.05;84.83
70250;BME280;57644;48.416;-123.374;2022-09-24T11:44:13;102261.55;;;7.11;84.76
70250;BME280;57644;48.416;-123.374;2022-09-24T11:46:44;102256.60;;;7.16;84.99
70250;BME280;57644;48.416;-123.374;2022-09-24T11:49:10;102250.73;;;7.19;85.11
70250;BME280;57644;48.416;-123.374;2022-09-24T11:51:42;102250.46;;;7.20;85.35
70250;BME280;57644;48.416;-123.374;2022-09-24T11:54:06;102255.07;;;7.23;85.20
70250;BME280;57644;48.416;-123.374;2022-09-24T11:56:36;102259.21;;;7.28;85.00
70250;BME280;57644;48.416;-123.374;2022-09-24T11:59:12;102261.18;;;7.31;84.94
70250;BME280;57644;48.416;-123.374;2022-09-24T12:01:36;102260.84;;;7.31;85.26
70250;BME280;57644;48.416;-123.374;2022-09-24T12:04:10;102263.93;;;7.35;85.20
70250;BME280;57644;48.416;-123.374;2022-09-24T12:06:38;102269.61;;;7.39;85.16
70250;BME280;57644;48.416;-123.374;2022-09-24T12:09:13;102270.14;;;7.44;84.77
70250;BME280;57644;48.416;-123.374;2022-09-24T12:11:38;102273.50;;;7.49;84.44
70250;BME280;57644;48.416;-123.374;2022-09-24T12:14:11;102273.91;;;7.51;84.37
70250;BME280;57644;48.416;-123.374;2022-09-24T12:16:38;102278.47;;;7.52;84.10
70250;BME280;57644;48.416;-123.374;2022-09-24T12:19:11;102279.73;;;7.52;84.11
70250;BME280;57644;48.416;-123.374;2022-09-24T12:21:38;102280.16;;;7.49;84.24
70250;BME280;57644;48.416;-123.374;2022-09-24T12:24:11;102279.43;;;7.49;84.13
70250;BME280;57644;48.416;-123.374;2022-09-24T12:26:38;102282.01;;;7.49;84.13
70250;BME280;57644;48.416;-123.374;2022-09-24T12:31:51;102291.12;;;7.52;84.00
70250;BME280;57644;48.416;-123.374;2022-09-24T12:34:14;102287.14;;;7.51;83.75
70250;BME280;57644;48.416;-123.374;2022-09-24T12:36:48;102284.35;;;7.50;83.58
70250;BME280;57644;48.416;-123.374;2022-09-24T12:39:11;102286.80;;;7.49;83.55
70250;BME280;57644;48.416;-123.374;2022-09-24T12:41:48;102286.44;;;7.49;83.48
70250;BME280;57644;48.416;-123.374;2022-09-24T12:44:16;102282.27;;;7.49;83.62
70250;BME280;57644;48.416;-123.374;2022-09-24T12:46:42;102283.26;;;7.48;83.65
70250;BME280;57644;48.416;-123.374;2022-09-24T12:49:25;102283.52;;;7.44;83.95
70250;BME280;57644;48.416;-123.374;2022-09-24T12:51:41;102284.06;;;7.42;84.32
70250;BME280;57644;48.416;-123.374;2022-09-24T12:54:22;102281.37;;;7.41;84.23
70250;BME280;57644;48.416;-123.374;2022-09-24T12:56:42;102285.16;;;7.40;84.18
70250;BME280;57644;48.416;-123.374;2022-09-24T13:01:43;102294.28;;;7.40;84.42
70250;BME280;57644;48.416;-123.374;2022-09-24T13:06:44;102294.98;;;7.44;84.11
70250;BME280;57644;48.416;-123.374;2022-09-24T13:09:23;102296.43;;;7.45;84.05
70250;BME280;57644;48.416;-123.374;2022-09-24T13:11:44;102297.89;;;7.45;83.99